Time;durP1;ratioP1;P1;durP2;ratioP2;P2;SDS_P1;SDS_P2;PMS_P1;PMS_P2;Temp;Humidity;BMP_temperature;BMP_pressure;BME280_temperature;BME280_humidity;BME280_pressure;Samples;Min_cycle;Max_cycle;Signal;HPM_P1;HPM_P2
2023/12/31 00:01:24;;;;;;;;;;;;;;;5.69;73.01;99809.25;4367345;32;33713;-88
2023/12/31 00:03:54;;;;;;;;;;;;;;;5.53;73.31;99818.53;4368500;32;32730;-88
2023/12/31 00:06:27;;;;;;;;;;;;;;;5.78;72.77;99811.91;4371411;32;32384;-88
2023/12/31 00:08:56;;;;;;;;;;;;;;;5.84;72.43;99813.66;4368490;32;33852;-89
2023/12/31 00:11:31;;;;;;;;;;;;;;;5.81;72.35;99806.75;4352162;32;36032;-90
2023/12/31 00:14:05;;;;;;;;;;;;;;;5.68;72.84;99804.94;4366735;32;33756;-89
2023/12/31 00:16:34;;;;;;;;;;;;;;;5.71;72.90;99807.53;4367934;32;33784;-89
2023/12/31 00:19:04;;;;;;;;;;;;;;;5.55;73.09;99804.81;4372064;32;34243;-89
2023/12/31 00:21:36;;;;;;;;;;;;;;;5.59;73.83;99802.28;4365572;32;34259;-89
2023/12/31 00:24:06;;;;;;;;;;;;;;;5.75;73.17;99788.69;4365031;32;33005;-90
2023/12/31 00:26:35;;;;;;;;;;;;;;;5.81;72.62;99791.31;4363262;32;33439;-89
2023/12/31 00:29:09;;;;;;;;;;;;;;;5.66;73.14;99797.22;4372250;32;34858;-89
2023/12/31 00:31:39;;;;;;;;;;;;;;;5.65;72.93;99785.16;4367215;32;33823;-89
2023/12/31 00:34:11;;;;;;;;;;;;;;;5.68;72.64;99789.50;4368753;32;32667;-88
2023/12/31 00:36:39;;;;;;;;;;;;;;;5.56;73.07;99788.53;4368319;32;34452;-89
2023/12/31 00:39:17;;;;;;;;;;;;;;;5.59;73.44;99795.44;4366893;32;33048;-89
2023/12/31 00:41:46;;;;;;;;;;;;;;;5.43;74.11;99789.28;4372627;32;33473;-89
2023/12/31 00:44:22;;;;;;;;;;;;;;;5.71;73.14;99784.38;4351657;32;34217;-89
2023/12/31 00:46:51;;;;;;;;;;;;;;;5.46;73.70;99786.75;4371504;32;33948;-89
2023/12/31 00:49:23;;;;;;;;;;;;;;;5.38;73.42;99787.50;4367778;32;34710;-89
2023/12/31 00:51:59;;;;;;;;;;;;;;;5.52;73.20;99788.50;4352094;32;33345;-89
2023/12/31 00:54:28;;;;;;;;;;;;;;;5.69;72.56;99784.34;4367328;32;33037;-89
2023/12/31 00:56:56;;;;;;;;;;;;;;;5.40;72.68;99791.81;4370314;32;33571;-89
2023/12/31 00:59:28;;;;;;;;;;;;;;;5.25;73.27;99787.41;4366595;32;33801;-89
2023/12/31 01:01:57;;;;;;;;;;;;;;;5.33;73.32;99796.03;4363568;32;33784;-89
2023/12/31 01:04:30;;;;;;;;;;;;;;;4.74;74.70;99801.41;4371903;32;33045;-88
2023/12/31 01:06:58;;;;;;;;;;;;;;;4.89;74.30;99796.44;4368463;32;34076;-88
2023/12/31 01:09:28;;;;;;;;;;;;;;;5.29;72.14;99794.31;4366733;32;33816;-89
2023/12/31 01:11:59;;;;;;;;;;;;;;;5.16;72.46;99791.59;4365956;32;33653;-88
2023/12/31 01:14:35;;;;;;;;;;;;;;;5.30;70.94;99795.16;4367287;32;33109;-88
2023/12/31 01:17:11;;;;;;;;;;;;;;;5.26;70.86;99793.41;4368567;32;35492;-89
2023/12/31 01:19:44;;;;;;;;;;;;;;;5.02;71.52;99799.16;4368334;32;35054;-88
2023/12/31 01:22:15;;;;;;;;;;;;;;;4.90;71.90;99795.63;4365607;32;33873;-89
2023/12/31 01:24:53;;;;;;;;;;;;;;;4.70;72.09;99800.50;4363852;32;32643;-89
2023/12/31 01:27:22;;;;;;;;;;;;;;;4.91;71.19;99794.75;4364861;32;32373;-88
2023/12/31 01:29:52;;;;;;;;;;;;;;;4.80;72.09;99803.19;4368940;32;35343;-89
2023/12/31 01:32:20;;;;;;;;;;;;;;;5.03;70.87;99800.91;4364838;32;34123;-89
2023/12/31 01:34:55;;;;;;;;;;;;;;;4.65;72.79;99788.44;4365687;32;33168;-89
2023/12/31 01:37:23;;;;;;;;;;;;;;;4.57;72.98;99790.06;4367044;32;33212;-89
2023/12/31 01:39:54;;;;;;;;;;;;;;;4.21;74.91;99788.72;4370111;32;33647;-89
2023/12/31 01:42:22;;;;;;;;;;;;;;;4.10;74.34;99783.44;4366227;32;33166;-89
2023/12/31 01:44:55;;;;;;;;;;;;;;;4.47;72.99;99783.94;4367045;32;32742;-89
2023/12/31 01:47:23;;;;;;;;;;;;;;;4.52;72.62;99779.72;4367432;32;33803;-89
2023/12/31 01:49:56;;;;;;;;;;;;;;;4.45;73.00;99780.50;4367137;32;34960;-89
2023/12/31 01:52:25;;;;;;;;;;;;;;;4.47;72.64;99781.38;4370773;32;33744;-89
2023/12/31 01:54:54;;;;;;;;;;;;;;;4.35;73.26;99779.50;4347690;32;32219;-89
2023/12/31 01:57:24;;;;;;;;;;;;;;;4.06;73.93;99784.25;4369044;32;33398;-89
2023/12/31 01:59:53;;;;;;;;;;;;;;;3.37;77.91;99778.88;4368949;32;33874;-89
2023/12/31 02:02:26;;;;;;;;;;;;;;;3.34;78.05;99783.94;4373613;32;33478;-89
2023/12/31 02:04:55;;;;;;;;;;;;;;;3.35;78.50;99780.53;4366909;32;33668;-89
2023/12/31 02:07:31;;;;;;;;;;;;;;;3.53;77.13;99776.56;4370074;32;34495;-88
2023/12/31 02:10:00;;;;;;;;;;;;;;;3.79;76.33;99775.28;4364539;32;34032;-88
2023/12/31 02:12:31;;;;;;;;;;;;;;;3.78;76.31;99776.12;4365381;32;34331;-88
2023/12/31 02:15:00;;;;;;;;;;;;;;;3.75;75.21;99775.22;4372351;32;32715;-89
2023/12/31 02:17:29;;;;;;;;;;;;;;;3.57;77.17;99765.50;4370078;32;33632;-89
2023/12/31 02:20:02;;;;;;;;;;;;;;;3.77;75.71;99764.13;4366199;32;34308;-89
2023/12/31 02:22:34;;;;;;;;;;;;;;;4.15;74.55;99770.66;4369444;32;33594;-89
2023/12/31 02:25:06;;;;;;;;;;;;;;;3.59;77.27;99767.25;4371301;32;32748;-89
2023/12/31 02:27:36;;;;;;;;;;;;;;;3.73;77.53;99762.34;4374930;32;33724;-89
2023/12/31 02:30:08;;;;;;;;;;;;;;;3.85;76.68;99764.25;4369297;32;32644;-89
2023/12/31 02:32:37;;;;;;;;;;;;;;;4.12;75.42;99761.22;4368678;32;33820;-88
2023/12/31 02:35:06;;;;;;;;;;;;;;;4.23;74.85;99757.09;4371978;32;33605;-88
2023/12/31 02:37:35;;;;;;;;;;;;;;;4.32;73.98;99753.78;4374534;32;33537;-89
2023/12/31 02:40:08;;;;;;;;;;;;;;;4.34;73.88;99754.66;4369470;32;34293;-89
2023/12/31 02:42:38;;;;;;;;;;;;;;;4.50;72.91;99758.28;4370148;32;34023;-88
2023/12/31 02:45:10;;;;;;;;;;;;;;;4.43;73.00;99752.22;4370528;32;33337;-89
2023/12/31 02:47:42;;;;;;;;;;;;;;;4.50;72.37;99755.72;4360900;32;33813;-89
2023/12/31 02:50:11;;;;;;;;;;;;;;;4.48;72.40;99752.28;4376634;32;33835;-89
2023/12/31 02:52:40;;;;;;;;;;;;;;;4.46;72.57;99747.09;4371510;32;34337;-89
2023/12/31 02:55:15;;;;;;;;;;;;;;;4.38;72.21;99745.31;4372489;32;33592;-89
2023/12/31 02:57:45;;;;;;;;;;;;;;;4.43;72.39;99744.50;4370184;32;34529;-88
2023/12/31 03:00:16;;;;;;;;;;;;;;;4.49;71.86;99739.47;4375518;32;34883;-89
2023/12/31 03:02:45;;;;;;;;;;;;;;;4.39;71.74;99745.28;4369429;32;33814;-89
2023/12/31 03:05:14;;;;;;;;;;;;;;;4.32;71.93;99745.22;4372066;32;33258;-89
2023/12/31 03:07:43;;;;;;;;;;;;;;;4.41;70.81;99735.91;4373582;32;34316;-89
2023/12/31 03:10:14;;;;;;;;;;;;;;;4.15;71.85;99738.12;4371113;32;33819;-89
2023/12/31 03:12:47;;;;;;;;;;;;;;;4.01;72.09;99737.09;4376523;32;33500;-88
2023/12/31 03:15:19;;;;;;;;;;;;;;;4.12;71.46;99743.25;4371593;32;33623;-88
2023/12/31 03:17:47;;;;;;;;;;;;;;;4.10;70.86;99737.22;4372715;32;33620;-88
2023/12/31 03:20:23;;;;;;;;;;;;;;;4.15;70.75;99735.56;4370887;32;34855;-88
2023/12/31 03:22:51;;;;;;;;;;;;;;;4.12;70.58;99735.53;4376104;32;34062;-88
2023/12/31 03:25:24;;;;;;;;;;;;;;;3.88;71.54;99720.66;4373900;32;34577;-88
2023/12/31 03:27:53;;;;;;;;;;;;;;;4.11;70.64;99722.66;4371462;32;33888;-88
2023/12/31 03:30:22;;;;;;;;;;;;;;;3.74;72.02;99724.72;4371366;32;34827;-88
2023/12/31 03:32:51;;;;;;;;;;;;;;;3.87;71.48;99720.63;4370843;32;34423;-88
2023/12/31 03:35:21;;;;;;;;;;;;;;;3.82;71.57;99720.59;4376415;32;32721;-88
2023/12/31 03:37:52;;;;;;;;;;;;;;;3.59;72.47;99722.78;4370912;32;33710;-88
2023/12/31 03:40:27;;;;;;;;;;;;;;;3.57;71.77;99721.91;4369986;32;34038;-88
2023/12/31 03:42:57;;;;;;;;;;;;;;;3.71;71.53;99722.12;4356659;32;33741;-88
2023/12/31 03:45:25;;;;;;;;;;;;;;;3.81;71.58;99713.72;4364003;32;33436;-88
2023/12/31 03:47:55;;;;;;;;;;;;;;;3.64;72.03;99716.03;4376347;32;33731;-88
2023/12/31 03:50:27;;;;;;;;;;;;;;;3.84;71.45;99708.62;4371022;32;34290;-87
2023/12/31 03:52:57;;;;;;;;;;;;;;;3.74;71.55;99712.75;4369684;32;34349;-88
2023/12/31 03:55:27;;;;;;;;;;;;;;;3.77;71.32;99709.38;4372993;32;33079;-87
2023/12/31 03:57:58;;;;;;;;;;;;;;;3.57;71.58;99706.50;4375712;32;35210;-87
2023/12/31 04:00:27;;;;;;;;;;;;;;;3.77;70.73;99701.66;4369630;32;33961;-88
2023/12/31 04:02:58;;;;;;;;;;;;;;;3.72;71.24;99709.31;4369107;32;33746;-88
2023/12/31 04:05:27;;;;;;;;;;;;;;;3.65;71.28;99704.94;4370632;32;33700;-87
2023/12/31 04:07:59;;;;;;;;;;;;;;;3.76;70.92;99703.37;4355832;32;33409;-87
2023/12/31 04:10:28;;;;;;;;;;;;;;;3.72;70.71;99705.88;4373489;32;34512;-87
2023/12/31 04:12:58;;;;;;;;;;;;;;;3.77;70.48;99705.13;4368436;32;33768;-87
2023/12/31 04:15:27;;;;;;;;;;;;;;;3.66;70.31;99704.09;4370987;32;32944;-87
2023/12/31 04:17:56;;;;;;;;;;;;;;;3.71;70.73;99702.44;4367249;32;35110;-87
2023/12/31 04:20:25;;;;;;;;;;;;;;;3.72;70.54;99705.88;4374119;32;33597;-88
2023/12/31 04:22:58;;;;;;;;;;;;;;;3.70;70.53;99700.75;4369142;32;33854;-87
2023/12/31 04:25:27;;;;;;;;;;;;;;;3.75;70.55;99699.09;4367100;32;32776;-87
2023/12/31 04:27:59;;;;;;;;;;;;;;;3.76;70.29;99694.81;4369081;32;33988;-87
2023/12/31 04:30:29;;;;;;;;;;;;;;;3.73;70.31;99705.06;4370490;32;34026;-87
2023/12/31 04:32:59;;;;;;;;;;;;;;;3.70;70.08;99705.00;4375495;32;35793;-87
2023/12/31 04:35:28;;;;;;;;;;;;;;;3.59;70.40;99707.41;4370128;32;33758;-87
2023/12/31 04:38:05;;;;;;;;;;;;;;;3.62;70.44;99707.44;4369942;32;33749;-87
2023/12/31 04:40:34;;;;;;;;;;;;;;;3.59;70.53;99707.41;4367053;32;35033;-87
2023/12/31 04:43:07;;;;;;;;;;;;;;;3.63;70.62;99709.19;4372718;32;33690;-87
2023/12/31 04:45:44;;;;;;;;;;;;;;;3.77;70.22;99709.38;4367109;32;33071;-87
2023/12/31 04:48:14;;;;;;;;;;;;;;;3.73;70.23;99710.19;4372076;32;33633;-87
2023/12/31 04:50:47;;;;;;;;;;;;;;;3.61;70.50;99713.44;4369659;32;33416;-87
2023/12/31 04:53:20;;;;;;;;;;;;;;;3.63;70.65;99711.75;4367847;32;33324;-87
2023/12/31 04:55:54;;;;;;;;;;;;;;;3.63;70.55;99702.34;4373986;32;33415;-87
2023/12/31 04:58:23;;;;;;;;;;;;;;;3.71;70.37;99704.16;4371978;32;33844;-87
2023/12/31 05:01:00;;;;;;;;;;;;;;;3.62;70.68;99703.19;4369390;32;33333;-88
2023/12/31 05:03:29;;;;;;;;;;;;;;;3.70;70.53;99698.16;4352728;32;33290;-88
2023/12/31 05:05:59;;;;;;;;;;;;;;;3.67;70.62;99695.53;4355210;32;33308;-88
2023/12/31 05:08:34;;;;;;;;;;;;;;;3.66;70.72;99695.53;4359050;32;33528;-88
2023/12/31 05:11:03;;;;;;;;;;;;;;;3.59;70.89;99692.00;4347107;32;33864;-87
2023/12/31 05:13:32;;;;;;;;;;;;;;;3.67;70.48;99694.69;4354540;32;34468;-88
2023/12/31 05:16:03;;;;;;;;;;;;;;;3.39;71.83;99699.41;4354197;32;32487;-87
2023/12/31 05:18:32;;;;;;;;;;;;;;;3.51;70.97;99691.91;4354082;32;34163;-88
2023/12/31 05:21:02;;;;;;;;;;;;;;;3.75;70.22;99699.09;4353969;32;34032;-87
2023/12/31 05:23:31;;;;;;;;;;;;;;;3.61;70.44;99695.47;4354515;32;33354;-87
2023/12/31 05:26:07;;;;;;;;;;;;;;;3.55;71.21;99691.13;4355361;32;33926;-87
2023/12/31 05:28:36;;;;;;;;;;;;;;;3.52;70.90;99692.75;4355159;32;33857;-87
2023/12/31 05:31:06;;;;;;;;;;;;;;;3.52;71.10;99685.06;4361961;32;34593;-87
2023/12/31 05:33:36;;;;;;;;;;;;;;;3.59;71.34;99681.75;4356735;32;33853;-87
2023/12/31 05:36:08;;;;;;;;;;;;;;;3.54;71.14;99676.53;4360255;32;34159;-88
2023/12/31 05:38:37;;;;;;;;;;;;;;;3.32;71.57;99677.06;4357315;32;33437;-88
2023/12/31 05:41:09;;;;;;;;;;;;;;;3.49;71.39;99679.91;4361419;32;34213;-88
2023/12/31 05:43:38;;;;;;;;;;;;;;;3.49;71.47;99685.03;4359725;32;33803;-88
2023/12/31 05:46:09;;;;;;;;;;;;;;;3.56;71.03;99691.97;4359122;32;33354;-88
2023/12/31 05:48:39;;;;;;;;;;;;;;;3.75;70.43;99688.84;4355345;32;33642;-88
2023/12/31 05:51:08;;;;;;;;;;;;;;;3.36;71.29;99682.28;4355388;32;33873;-89
2023/12/31 05:53:39;;;;;;;;;;;;;;;3.56;70.95;99682.56;4357643;32;33800;-89
2023/12/31 05:56:12;;;;;;;;;;;;;;;3.07;72.40;99686.94;4341234;33;32879;-89
2023/12/31 05:58:48;;;;;;;;;;;;;;;3.20;72.78;99683.72;4351770;32;34692;-88
2023/12/31 06:01:21;;;;;;;;;;;;;;;3.46;71.44;99685.84;4357259;32;33908;-88
2023/12/31 06:04:04;;;;;;;;;;;;;;;3.42;71.28;99687.47;4369455;32;33778;-89
2023/12/31 06:06:34;;;;;;;;;;;;;;;3.51;71.13;99686.78;4374781;32;32972;-89
2023/12/31 06:09:03;;;;;;;;;;;;;;;3.46;71.27;99683.28;4370448;32;33293;-89
2023/12/31 06:11:36;;;;;;;;;;;;;;;3.45;70.78;99683.25;4371403;32;35456;-89
2023/12/31 06:14:04;;;;;;;;;;;;;;;3.44;71.09;99679.81;4371455;32;34151;-88
2023/12/31 06:16:34;;;;;;;;;;;;;;;3.28;70.75;99676.13;4374984;32;34141;-89
2023/12/31 06:19:03;;;;;;;;;;;;;;;3.54;70.20;99684.25;4376214;32;34201;-89
2023/12/31 06:21:31;;;;;;;;;;;;;;;3.48;70.58;99679.03;4370249;32;33968;-88
2023/12/31 06:24:04;;;;;;;;;;;;;;;3.42;70.96;99673.81;4369155;32;33933;-89
2023/12/31 06:26:33;;;;;;;;;;;;;;;3.42;71.13;99676.38;4360823;32;33439;-89
2023/12/31 06:29:02;;;;;;;;;;;;;;;3.27;71.34;99676.13;4373350;32;33811;-89
2023/12/31 06:31:34;;;;;;;;;;;;;;;3.38;72.50;99680.59;4369908;32;34592;-89
2023/12/31 06:34:07;;;;;;;;;;;;;;;3.47;71.97;99669.59;4370651;32;34293;-89
2023/12/31 06:36:38;;;;;;;;;;;;;;;3.41;72.76;99678.06;4371630;32;33312;-89
2023/12/31 06:39:07;;;;;;;;;;;;;;;3.54;72.04;99671.41;4369480;32;33470;-89
2023/12/31 06:41:35;;;;;;;;;;;;;;;3.61;72.28;99675.81;4374809;32;34126;-89
2023/12/31 06:44:07;;;;;;;;;;;;;;;3.59;72.38;99674.06;4370645;32;34828;-89
2023/12/31 06:46:36;;;;;;;;;;;;;;;3.65;72.40;99676.72;4371337;32;33080;-89
2023/12/31 06:49:09;;;;;;;;;;;;;;;3.38;74.25;99672.03;4370261;32;34377;-90
2023/12/31 06:51:39;;;;;;;;;;;;;;;2.92;76.98;99674.72;4376313;32;35747;-89
2023/12/31 06:54:11;;;;;;;;;;;;;;;2.53;79.46;99675.69;4370342;32;34351;-88
2023/12/31 06:56:40;;;;;;;;;;;;;;;2.41;80.47;99678.03;4369786;32;33006;-89
2023/12/31 06:59:10;;;;;;;;;;;;;;;2.14;82.55;99678.34;4369738;32;33931;-88
2023/12/31 07:01:39;;;;;;;;;;;;;;;2.64;80.74;99681.03;4369840;32;33766;-88
2023/12/31 07:04:09;;;;;;;;;;;;;;;2.46;81.71;99678.12;4375676;32;34656;-89
2023/12/31 07:06:38;;;;;;;;;;;;;;;2.51;80.72;99676.50;4375840;32;33319;-89
2023/12/31 07:09:13;;;;;;;;;;;;;;;2.86;79.91;99669.47;4371155;32;33834;-89
2023/12/31 07:11:41;;;;;;;;;;;;;;;3.12;78.69;99667.34;4369808;32;33751;-87
2023/12/31 07:14:19;;;;;;;;;;;;;;;2.99;80.72;99662.84;4376573;32;33749;-88
2023/12/31 07:16:47;;;;;;;;;;;;;;;2.99;82.09;99662.84;4374352;32;33343;-88
2023/12/31 07:19:19;;;;;;;;;;;;;;;3.09;82.71;99664.72;4370499;32;33684;-88
2023/12/31 07:21:51;;;;;;;;;;;;;;;3.30;82.88;99668.47;4370517;32;34289;-88
2023/12/31 07:24:19;;;;;;;;;;;;;;;3.15;83.49;99667.41;4372689;32;34362;-88
2023/12/31 07:26:55;;;;;;;;;;;;;;;3.27;83.28;99658.19;4375953;32;33193;-89
2023/12/31 07:29:24;;;;;;;;;;;;;;;3.31;84.92;99665.06;4368925;32;34709;-89
2023/12/31 07:31:55;;;;;;;;;;;;;;;3.73;82.18;99664.84;4365547;32;34217;-89
2023/12/31 07:34:24;;;;;;;;;;;;;;;3.90;81.48;99665.09;4369849;32;33658;-90
2023/12/31 07:36:57;;;;;;;;;;;;;;;4.11;80.80;99672.22;4375582;32;33709;-90
2023/12/31 07:39:26;;;;;;;;;;;;;;;3.83;82.36;99669.25;4375703;32;34185;-90
2023/12/31 07:41:55;;;;;;;;;;;;;;;3.79;82.74;99664.94;4370659;32;33681;-90
2023/12/31 07:44:24;;;;;;;;;;;;;;;3.74;83.42;99670.84;4371059;32;34584;-90
2023/12/31 07:46:53;;;;;;;;;;;;;;;4.00;83.45;99661.78;4370176;32;33324;-91
2023/12/31 07:49:26;;;;;;;;;;;;;;;4.42;81.31;99663.16;4375648;32;33728;-90
2023/12/31 07:51:55;;;;;;;;;;;;;;;4.06;83.07;99659.31;4369620;32;33418;-91
2023/12/31 07:54:27;;;;;;;;;;;;;;;3.83;84.91;99659.00;4370722;32;33509;-90
2023/12/31 07:56:55;;;;;;;;;;;;;;;4.07;84.28;99662.72;4371786;32;33450;-91
2023/12/31 07:59:27;;;;;;;;;;;;;;;4.13;84.75;99660.25;4371443;32;34082;-91
2023/12/31 08:02:00;;;;;;;;;;;;;;;4.29;83.75;99653.59;4350051;32;799750;-90
2023/12/31 08:04:31;;;;;;;;;;;;;;;4.33;83.27;99654.50;4366571;32;34383;-90
2023/12/31 08:06:59;;;;;;;;;;;;;;;4.25;83.24;99646.69;4375720;32;33401;-91
2023/12/31 08:09:31;;;;;;;;;;;;;;;4.24;83.77;99650.97;4369818;32;34942;-90
2023/12/31 08:12:01;;;;;;;;;;;;;;;3.76;85.89;99652.06;4374647;32;34609;-91
2023/12/31 08:14:35;;;;;;;;;;;;;;;3.87;85.82;99652.22;4367008;32;33690;-91
2023/12/31 08:17:04;;;;;;;;;;;;;;;4.36;84.24;99651.94;4363643;32;33740;-91
2023/12/31 08:19:35;;;;;;;;;;;;;;;3.69;86.86;99652.81;4368516;32;34485;-90
2023/12/31 08:22:10;;;;;;;;;;;;;;;3.80;88.24;99656.41;4369335;32;34828;-90
2023/12/31 08:24:38;;;;;;;;;;;;;;;4.13;86.15;99657.69;4374516;32;34135;-90
2023/12/31 08:27:07;;;;;;;;;;;;;;;3.90;85.68;99657.37;4370656;32;32523;-91
2023/12/31 08:29:37;;;;;;;;;;;;;;;4.14;84.98;99651.69;4367516;32;34432;-90
2023/12/31 08:32:06;;;;;;;;;;;;;;;4.49;84.02;99651.22;4366293;32;33387;-90
2023/12/31 08:34:39;;;;;;;;;;;;;;;4.84;82.53;99651.59;4373918;32;33119;-90
2023/12/31 08:37:10;;;;;;;;;;;;;;;4.23;87.13;99651.81;4367262;32;33451;-90
2023/12/31 08:39:41;;;;;;;;;;;;;;;4.78;84.81;99653.22;4368971;32;33447;-90
2023/12/31 08:42:12;;;;;;;;;;;;;;;4.70;86.57;99661.72;4369410;32;34121;-90
2023/12/31 08:44:42;;;;;;;;;;;;;;;4.63;86.87;99654.81;4372801;32;34810;-90
2023/12/31 08:47:37;;;;;;;;;;;;;;;4.73;86.05;99650.63;4374122;32;34009;-90
2023/12/31 08:50:11;;;;;;;;;;;;;;;4.28;89.27;99646.75;4370122;32;33832;-90
2023/12/31 08:52:43;;;;;;;;;;;;;;;5.29;84.27;99650.25;4365806;32;34980;-90
2023/12/31 08:55:11;;;;;;;;;;;;;;;5.14;84.97;99660.41;4371348;32;34716;-90
2023/12/31 08:57:41;;;;;;;;;;;;;;;5.32;84.51;99655.41;4368902;32;33057;-89
2023/12/31 09:00:11;;;;;;;;;;;;;;;5.40;83.28;99662.34;4370534;32;34158;-90
2023/12/31 09:02:44;;;;;;;;;;;;;;;5.76;83.27;99664.28;4364015;32;34234;-91
2023/12/31 09:05:14;;;;;;;;;;;;;;;5.05;85.78;99657.75;4363662;32;33473;-91
2023/12/31 09:07:44;;;;;;;;;;;;;;;5.02;87.61;99655.16;4369479;32;34072;-91
2023/12/31 09:10:13;;;;;;;;;;;;;;;5.43;87.34;99652.06;4370834;32;33307;-90
2023/12/31 09:12:48;;;;;;;;;;;;;;;5.20;88.68;99655.34;4374241;32;33652;-92
2023/12/31 09:15:16;;;;;;;;;;;;;;;5.65;86.28;99651.34;4371119;32;34673;-90
2023/12/31 09:17:45;;;;;;;;;;;;;;;5.38;88.05;99643.44;4370845;32;33089;-91
2023/12/31 09:20:16;;;;;;;;;;;;;;;4.89;90.76;99641.34;4368769;32;33927;-90
2023/12/31 09:22:45;;;;;;;;;;;;;;;4.98;88.66;99633.72;4376581;32;34580;-90
2023/12/31 09:25:17;;;;;;;;;;;;;;;5.23;88.89;99636.50;4370946;32;33543;-90
2023/12/31 09:27:46;;;;;;;;;;;;;;;5.51;87.75;99638.41;4370402;32;32847;-90
2023/12/31 09:30:17;;;;;;;;;;;;;;;5.07;87.51;99644.09;4370692;32;33339;-90
2023/12/31 09:32:46;;;;;;;;;;;;;;;4.85;90.36;99630.16;4370692;32;34140;-91
2023/12/31 09:35:19;;;;;;;;;;;;;;;5.15;88.88;99626.16;4376089;32;33732;-90
2023/12/31 09:37:51;;;;;;;;;;;;;;;5.53;88.15;99612.66;4372928;32;33533;-90
2023/12/31 09:40:20;;;;;;;;;;;;;;;5.06;89.43;99608.06;4370583;32;33572;-90
2023/12/31 09:42:52;;;;;;;;;;;;;;;5.40;86.76;99603.16;4370855;32;34010;-90
2023/12/31 09:45:23;;;;;;;;;;;;;;;6.05;85.58;99612.09;4374692;32;34421;-90
2023/12/31 09:47:55;;;;;;;;;;;;;;;5.77;86.62;99596.50;4372682;32;32961;-89
2023/12/31 09:50:25;;;;;;;;;;;;;;;5.33;89.68;99597.97;4366231;32;33781;-90
2023/12/31 09:53:02;;;;;;;;;;;;;;;5.11;91.46;99590.97;4371074;32;34133;-90
2023/12/31 09:55:31;;;;;;;;;;;;;;;4.73;94.64;99586.38;4371915;32;34003;-90
2023/12/31 09:58:07;;;;;;;;;;;;;;;5.23;93.87;99588.47;4362200;32;33487;-92
2023/12/31 10:00:40;;;;;;;;;;;;;;;5.45;92.36;99596.34;4364672;32;34060;-91
2023/12/31 10:03:08;;;;;;;;;;;;;;;4.82;95.57;99585.59;4370590;32;34875;-90
2023/12/31 10:05:42;;;;;;;;;;;;;;;5.27;95.77;99594.53;4371479;32;34069;-91
2023/12/31 10:08:10;;;;;;;;;;;;;;;5.88;91.17;99597.41;4360515;32;33111;-91
2023/12/31 10:10:39;;;;;;;;;;;;;;;5.50;92.07;99586.94;4374972;32;34302;-91
2023/12/31 10:13:11;;;;;;;;;;;;;;;6.06;90.64;99580.34;4360254;32;33549;-92
2023/12/31 10:15:41;;;;;;;;;;;;;;;5.45;93.35;99571.47;4371486;32;33033;-90
2023/12/31 10:18:10;;;;;;;;;;;;;;;5.73;92.86;99553.59;4355082;32;32249;-91
2023/12/31 10:20:46;;;;;;;;;;;;;;;5.75;92.64;99546.72;4373868;32;34066;-90
2023/12/31 10:23:16;;;;;;;;;;;;;;;6.62;87.34;99534.09;4367495;32;33593;-92
2023/12/31 10:25:45;;;;;;;;;;;;;;;6.43;88.96;99537.50;4371758;32;33774;-91
2023/12/31 10:28:16;;;;;;;;;;;;;;;6.09;90.04;99528.84;4370868;32;33854;-89
2023/12/31 10:30:48;;;;;;;;;;;;;;;6.16;91.92;99517.69;4368982;32;33129;-90
2023/12/31 10:33:17;;;;;;;;;;;;;;;6.64;88.50;99523.75;4371850;32;34884;-89
2023/12/31 10:35:47;;;;;;;;;;;;;;;6.39;88.49;99523.75;4370070;32;33507;-88
2023/12/31 10:38:17;;;;;;;;;;;;;;;6.21;91.37;99513.44;4369612;32;32937;-89
2023/12/31 10:40:47;;;;;;;;;;;;;;;5.83;90.89;99515.88;4368438;32;33462;-88
2023/12/31 10:43:17;;;;;;;;;;;;;;;6.66;88.85;99514.31;4374080;32;33858;-89
2023/12/31 10:45:55;;;;;;;;;;;;;;;6.35;89.33;99510.84;4368116;32;34323;-88
2023/12/31 10:48:23;;;;;;;;;;;;;;;6.16;90.95;99499.66;4369704;32;32917;-88
2023/12/31 10:50:54;;;;;;;;;;;;;;;6.65;89.80;99502.28;4367174;32;33716;-89
2023/12/31 10:53:24;;;;;;;;;;;;;;;7.10;87.37;99499.63;4364271;32;33779;-89
2023/12/31 10:55:53;;;;;;;;;;;;;;;6.07;91.99;99490.22;4374999;32;33376;-89
2023/12/31 10:58:22;;;;;;;;;;;;;;;6.09;90.60;99482.47;4370179;32;31769;-90
2023/12/31 11:00:55;;;;;;;;;;;;;;;6.39;91.67;99485.09;4365747;32;33518;-89
2023/12/31 11:03:25;;;;;;;;;;;;;;;7.00;88.98;99479.00;4367468;32;34691;-89
2023/12/31 11:05:56;;;;;;;;;;;;;;;6.91;88.37;99470.44;4374596;32;33658;-90
2023/12/31 11:08:27;;;;;;;;;;;;;;;6.74;88.63;99465.31;4374205;32;34226;-89
2023/12/31 11:10:56;;;;;;;;;;;;;;;7.39;86.40;99456.56;4365990;32;32511;-88
2023/12/31 11:13:26;;;;;;;;;;;;;;;6.57;88.22;99455.91;4364029;32;33858;-88
2023/12/31 11:15:54;;;;;;;;;;;;;;;6.83;89.22;99455.84;4374052;32;34177;-88
2023/12/31 11:18:33;;;;;;;;;;;;;;;7.16;86.63;99453.19;4374456;32;33945;-88
2023/12/31 11:21:03;;;;;;;;;;;;;;;6.72;88.20;99446.44;4367412;32;34367;-88
2023/12/31 11:23:35;;;;;;;;;;;;;;;6.51;90.80;99445.59;4368890;32;33470;-88
2023/12/31 11:26:05;;;;;;;;;;;;;;;6.74;88.46;99442.09;4372121;32;33919;-89
2023/12/31 11:28:34;;;;;;;;;;;;;;;6.02;92.33;99426.66;4368954;32;32776;-88
2023/12/31 11:31:04;;;;;;;;;;;;;;;6.26;89.99;99425.81;4374753;32;35116;-88
2023/12/31 11:33:35;;;;;;;;;;;;;;;6.65;90.25;99424.09;4367932;32;33392;-89
2023/12/31 11:36:08;;;;;;;;;;;;;;;7.14;85.24;99411.06;4366015;32;34033;-89
2023/12/31 11:38:53;;;;;;;;;;;;;;;7.32;85.73;99405.84;4364414;32;32972;-88
2023/12/31 11:41:22;;;;;;;;;;;;;;;6.99;87.21;99401.66;4368195;32;34715;-89
2023/12/31 11:43:51;;;;;;;;;;;;;;;7.34;85.73;99400.66;4368764;32;34533;-89
2023/12/31 11:46:38;;;;;;;;;;;;;;;6.72;86.26;99393.16;4369744;32;33632;-89
2023/12/31 11:49:07;;;;;;;;;;;;;;;7.42;84.54;99393.75;4367948;32;32505;-89
2023/12/31 11:52:05;;;;;;;;;;;;;;;6.78;85.17;99395.69;4368090;32;33339;-89
2023/12/31 11:54:40;;;;;;;;;;;;;;;6.65;85.87;99390.59;4367666;32;34049;-89
2023/12/31 11:57:10;;;;;;;;;;;;;;;6.39;87.75;99378.59;4374826;32;34273;-89
2023/12/31 11:59:39;;;;;;;;;;;;;;;6.55;87.30;99389.75;4366067;32;33457;-88
2023/12/31 12:02:08;;;;;;;;;;;;;;;6.91;84.33;99386.22;4363256;32;34893;-88
2023/12/31 12:04:42;;;;;;;;;;;;;;;6.62;85.86;99378.56;4369449;32;35000;-89
2023/12/31 12:07:10;;;;;;;;;;;;;;;6.60;84.72;99375.13;4369282;32;33837;-89
2023/12/31 12:09:40;;;;;;;;;;;;;;;6.25;87.30;99370.88;4374374;32;33369;-88
2023/12/31 12:12:10;;;;;;;;;;;;;;;6.91;84.74;99369.88;4369082;32;34737;-88
2023/12/31 12:14:42;;;;;;;;;;;;;;;6.62;85.77;99363.97;4369462;32;33561;-88
2023/12/31 12:17:15;;;;;;;;;;;;;;;6.14;86.98;99367.47;4372549;32;33962;-88
2023/12/31 12:19:44;;;;;;;;;;;;;;;6.53;86.27;99353.66;4375740;32;32683;-89
2023/12/31 12:22:13;;;;;;;;;;;;;;;7.20;82.15;99346.53;4368282;32;34214;-88
2023/12/31 12:24:46;;;;;;;;;;;;;;;6.74;83.93;99342.44;4359899;32;35199;-88
2023/12/31 12:27:15;;;;;;;;;;;;;;;6.76;83.17;99342.44;4367262;32;33634;-88
2023/12/31 12:29:49;;;;;;;;;;;;;;;6.32;85.95;99336.53;4366265;32;33643;-88
2023/12/31 12:32:18;;;;;;;;;;;;;;;7.21;81.52;99328.47;4367476;32;34642;-88
2023/12/31 12:34:53;;;;;;;;;;;;;;;6.82;84.09;99325.22;4367224;32;33439;-88
2023/12/31 12:37:22;;;;;;;;;;;;;;;6.41;85.25;99321.06;4368903;32;33920;-88
2023/12/31 12:39:56;;;;;;;;;;;;;;;6.73;84.52;99314.09;4368612;32;32850;-88
2023/12/31 12:42:25;;;;;;;;;;;;;;;6.51;85.22;99306.41;4370335;32;33705;-88
2023/12/31 12:44:55;;;;;;;;;;;;;;;6.51;85.74;99309.00;4375256;32;34051;-88
2023/12/31 12:47:24;;;;;;;;;;;;;;;6.28;87.00;99303.03;4373569;32;34112;-88
2023/12/31 12:49:54;;;;;;;;;;;;;;;6.89;83.54;99302.84;4369280;32;33904;-88
2023/12/31 12:52:23;;;;;;;;;;;;;;;6.67;83.86;99301.19;4369283;32;34029;-88
2023/12/31 12:54:52;;;;;;;;;;;;;;;6.63;83.88;99295.22;4363828;32;35468;-88
2023/12/31 12:57:25;;;;;;;;;;;;;;;6.88;83.04;99292.53;4358489;32;33653;-88
2023/12/31 13:02:27;;;;;;;;;;;;;;;6.65;84.26;99285.75;4354780;32;34586;-88
2023/12/31 13:04:57;;;;;;;;;;;;;;;6.70;84.09;99278.88;4357162;32;34319;-88
2023/12/31 13:07:27;;;;;;;;;;;;;;;7.01;82.36;99265.84;4360793;32;33250;-88
2023/12/31 13:09:55;;;;;;;;;;;;;;;6.65;83.73;99270.31;4354534;32;33965;-88
2023/12/31 13:12:32;;;;;;;;;;;;;;;6.84;83.57;99260.78;4354732;32;33947;-88
2023/12/31 13:15:00;;;;;;;;;;;;;;;7.53;79.29;99260.31;4355385;32;34423;-88
2023/12/31 13:17:30;;;;;;;;;;;;;;;7.37;80.22;99261.28;4360451;32;35727;-88
2023/12/31 13:19:59;;;;;;;;;;;;;;;7.25;80.56;99257.94;4355801;32;33332;-88